Rochert, Minnesota
Current Conditions -  °F | °C
As of 7:15 PM on Sunday 21 Dec 2014 (Local Time) from KDTL Reporting Station
Haze Haze  
Wind Chill: 23°   Ceiling: 400
Heat Index: 34°   Visibility: 5mi
Dew Point: 32°   Wind: 18mph
Humidity: 93%   Direction: 140°SE
Pressure: 29.59"   Gusts: NA
Location:  46.86°N, 95.69°W
Report Text: KDTL 220115Z AUTO 14016KT 5SM BR OVC004 01/00 A2959 RMK AO2
Loading
Personal Weather Stations






























Interactive Weather Map New forecast layout! Learn more

10-Day Weather Forecast

Advertisements
Track Severe Weather on mobile